グアム国際空港の過去48時間の天気

グアム国際空港 (Agana, Guam International Airport)

現在時刻: 9/23 07:23 ChST (9/22 21:23 UTC) 以下の時間は現地時間です。

過去48時間のMETAR気象情報
時間 風向 風速(m/s) 視程 気温(℃) 湿度(%) 気圧(hPa) 天気現象
23 06:54 静穏 0 10km以上 26.7 87 1011.3
23 05:54 静穏 0 10km以上 26.1 88 1010.9
23 04:54 東南東 2 10km以上 26.7 85 1010.6
23 03:54 2 10km以上 26.7 85 1010.6
23 02:54 2 10km以上 27.2 82 1010.5
23 01:54 2 10km以上 27.2 85 1010.7
23 00:54 静穏 0 10km以上 25.6 90 1011
22 23:54 静穏 0 10km以上 26.7 85 1011.5
22 22:54 東南東 2 10km以上 26.7 85 1012.4
22 21:54 東南東 2 10km以上 26.7 85 1012.5
22 20:54 東南東 2 10km以上 26.7 85 1012.5
22 19:54 南東 2 10km以上 27.2 77 1012.2
22 19:07 東北東 3 10km以上 27.8 77 1013
22 18:54 北東 3 10km以上 27.8 79 1011.4
22 18:41 北東 3 10km以上 27.8 79 1012
22 18:29 静穏 0 10km以上 27.2 82 1012
22 18:04 静穏 0 10km以上 28.3 74 1012
22 17:54 静穏 0 10km以上 27.8 77 1010.6
22 16:54 西南西 2 10km以上 27.8 74 1010
22 15:54 西南西 4 10km以上 28.9 77 1009.7
22 14:54 西 4 10km以上 30 70 1009.6
22 13:54 西 4 10km以上 30 70 1009.8
22 13:45 西 5 10km以上 28.3 74 1011
22 13:18 西北西 6 10km以上 28.9 77 1011
22 12:54 西北西 3 10km以上 30 70 1010.1
22 11:54 南南東 4 10km以上 30 70 1010.7
22 10:54 南東 4 10km以上 30 72 1011.2
22 10:27 南東 4 10km以上 30 72 1013
22 10:20 南南東 4 10km以上 30 72 1013
22 09:54 5 10km以上 29.4 77 1011.8
22 09:19 南東 4 10km以上 28.9 77 1013
22 09:01 南東 4 10km以上 28.9 77 1013
22 07:54 南南東 3 10km以上 28.3 79 1011.3
22 06:54 東南東 2 10km以上 26.1 88 1011
22 05:54 東南東 2 10km以上 25.6 87 1010.6
22 04:54 南東 2 10km以上 26.1 88 1009.8
22 03:54 静穏 0 10km以上 25.6 90 1009.6
22 02:54 南南東 2 10km以上 26.1 88 1009.6
22 01:54 南南東 2 10km以上 26.1 88 1009.8
22 00:54 静穏 0 10km以上 26.7 87 1010.3
21 23:54 南南東 2 10km以上 26.7 87 1010.7
21 22:54 静穏 0 10km以上 26.7 85 1011.1
21 21:54 静穏 0 10km以上 27.2 82 1011
21 20:54 静穏 0 10km以上 27.2 82 1010.7
21 19:54 南南東 2 10km以上 27.2 85 1010
21 18:54 2 10km以上 27.8 79 1009
21 17:54 3 10km以上 28.3 79 1008.4
21 16:54 南南東 5 10km以上 29.4 75 1007.7
21 15:54 5 10km以上 30 70 1006.9
21 14:54 南南東 4 10km以上 30 72 1006.9
21 13:54 南東 4 10km以上 30.6 70 1007.1
21 12:54 6 10km以上 30.6 70 1007.5
21 11:54 南東 4 10km以上 30.6 68 1008.3
21 10:54 南南東 4 10km以上 30 72 1009.1
21 10:01 南南東 4 10km以上 29.4 77 1011
21 09:54 5 10km以上 28.3 77 1009.6
21 08:54 4 10km以上 28.3 79 1009.3
21 07:54 2 10km以上 27.2 85 1009.1
PGUM 222054Z 00000KT 10SM CLR 27/24 A2989 RMK AO2 SLP113 T02670244 53007
PGUM 221954Z 00000KT 10SM FEW060 26/24 A2988 RMK AO2 SLP109 T02610239
PGUM 221854Z 12004KT 10SM CLR 27/24 A2987 RMK AO2 SLP106 T02670239
PGUM 221754Z 09004KT 10SM CLR 27/24 A2987 RMK AO2 SLP106 T02670239 10272 20250 55004
PGUM 221654Z 08004KT 10SM CLR 27/24 A2987 RMK AO2 SLP105 T02720239
PGUM 221554Z 08003KT 10SM CLR 27/24 A2987 RMK AO2 SLP107 T02720244
PGUM 221454Z 00000KT 10SM CLR 26/24 A2988 RMK AO2 SLP110 T02560239 58014
PGUM 221354Z 00000KT 10SM CLR 27/24 A2990 RMK AO2 SLP115 T02670239 403110256
PGUM 221254Z 11003KT 10SM CLR 27/24 A2992 RMK AO2 SLP124 T02670239
PGUM 221154Z 11003KT 10SM CLR 27/24 A2992 RMK AO2 SLP125 T02670239 10294 20267 50010
PGUM 221054Z 12004KT 10SM SCT065 BKN100 27/24 A2993 RMK AO2 SLP125 T02670239
PGUM 220954Z 13004KT 10SM OVC060 27/23 A2992 RMK AO2 SLP122 T02720228
PGUM 220907Z 06005KT 10SM FEW021 OVC080 28/23 A2990 RMK AO2 T02780233
PGUM 220854Z 05006KT 10SM BKN022 BKN070 28/24 A2989 RMK AO2 SLP114 T02780239 53017
PGUM 220841Z 04006KT 10SM BKN024 28/24 A2989 RMK AO2 T02780239
PGUM 220829Z 00000KT 10SM SCT026 SCT034 27/24 A2988 RMK AO2 T02720239
PGUM 220804Z 00000KT 10SM BKN028 28/23 A2987 RMK AO2 T02830233
PGUM 220754Z 00000KT 10SM SCT030 28/23 A2987 RMK AO2 SLP106 T02780233
PGUM 220654Z 24003KT 10SM FEW032 SCT043 28/23 A2985 RMK AO2 SLP100 T02780228
PGUM 220554Z 24007KT 10SM BKN037 29/24 A2984 RMK AO2 SLP097 T02890244 10311 20283 55004
PGUM 220454Z 26007KT 10SM CLR 30/24 A2984 RMK AO2 SLP096 T03000239
PGUM 220354Z 26008KT 10SM FEW029 BKN036 BKN048 30/24 A2984 RMK AO2 SLP098 T03000239
PGUM 220345Z 27009KT 10SM BKN033 BKN048 28/23 A2985 RMK AO2 T02830233
PGUM 220318Z 29011KT 10SM BKN029 29/24 A2985 RMK AO2 T02890244
PGUM 220254Z 29005KT 10SM FEW029 30/24 A2985 RMK AO2 SLP101 T03000239 58016
PGUM 220154Z 16007KT 10SM CLR 30/24 A2987 RMK AO2 SLP107 T03000239
PGUM 220054Z 14008KT 10SM FEW020 30/24 A2989 RMK AO2 SLP112 T03000244
PGUM 220027Z 14008KT 10SM FEW020 30/24 A2990 RMK AO2 T03000244
PGUM 220020Z 15008KT 10SM BKN020 30/24 A2990 RMK AO2 T03000244
PGUM 212354Z 17009KT 10SM SCT017 29/25 A2990 RMK AO2 SLP118 T02940250 10294 20256 50007
PGUM 212319Z 14007KT 10SM SCT019 29/24 A2990 RMK AO2 T02890244
PGUM 212301Z 14008KT 10SM BKN018 29/24 A2990 RMK AO2 T02890244
PGUM 212154Z 15006KT 10SM CLR 28/24 A2989 RMK AO2 SLP113 T02830244
PGUM 212054Z 11003KT 10SM CLR 26/24 A2988 RMK AO2 SLP110 T02610239 53015
PGUM 211954Z 12004KT 10SM CLR 26/23 A2987 RMK AO2 SLP106 T02560233
PGUM 211854Z 14003KT 10SM CLR 26/24 A2984 RMK AO2 SLP098 T02610239
PGUM 211754Z 00000KT 10SM CLR 26/24 A2984 RMK AO2 SLP096 T02560239 10272 20256 56007
PGUM 211654Z 15003KT 10SM CLR 26/24 A2984 RMK AO2 SLP096 T02610239
PGUM 211554Z 16003KT 10SM FEW019 FEW033 26/24 A2984 RMK AO2 SLP098 T02610239
PGUM 211454Z 00000KT 10SM FEW018 27/24 A2986 RMK AO2 SLP103 T02670244 58007
PGUM 211354Z 16003KT 10SM CLR 27/24 A2987 RMK AO2 SLP107 T02670244 403060244
PGUM 211254Z 00000KT 10SM CLR 27/24 A2988 RMK AO2 SLP111 T02670239
PGUM 211154Z 00000KT 10SM CLR 27/24 A2988 RMK AO2 SLP110 T02720239 10300 20272 51020
PGUM 211054Z 00000KT 10SM CLR 27/24 A2987 RMK AO2 SLP107 T02720239
PGUM 210954Z 16003KT 10SM CLR 27/24 A2985 RMK AO2 SLP100 T02720244
PGUM 210854Z 17004KT 10SM CLR 28/24 A2982 RMK AO2 SLP090 T02780239 51021
PGUM 210754Z 17006KT 10SM FEW025 28/24 A2981 RMK AO2 SLP084 T02830244
PGUM 210654Z 16009KT 10SM FEW023 29/24 A2978 RMK AO2 SLP077 T02940244
PGUM 210554Z 17009KT 10SM CLR 30/24 A2976 RMK AO2 SLP069 T03000239 10306 20283 55006
PGUM 210454Z 15008KT 10SM CLR 30/24 A2976 RMK AO2 SLP069 T03000244
PGUM 210354Z 14008KT 10SM CLR 31/24 A2977 RMK AO2 SLP071 T03060244
PGUM 210254Z 17011G15KT 10SM CLR 31/24 A2978 RMK AO2 SLP075 T03060244 58021
PGUM 210154Z 14008KT 10SM CLR 31/24 A2980 RMK AO2 SLP083 T03060239
PGUM 210054Z 15007KT 10SM FEW018 30/24 A2982 RMK AO2 SLP091 T03000244
PGUM 210001Z 16008KT 10SM SCT019 SCT029 BKN037 29/25 A2984 RMK AO2 T02940250
PGUM 202354Z 17009KT 10SM BKN019 BKN030 28/24 A2984 RMK AO2 SLP096 T02830239 10294 20244 51009
PGUM 202254Z 17007KT 10SM FEW014 28/24 A2983 RMK AO2 SLP093 T02830244
PGUM 202154Z 17004KT 10SM CLR 27/24 A2982 RMK AO2 SLP091 T02720244